Time;durP1;ratioP1;P1;durP2;ratioP2;P2;SDS_P1;SDS_P2;PMS_P1;PMS_P2;Temp;Humidity;BMP_temperature;BMP_pressure;BME280_temperature;BME280_humidity;BME280_pressure;Samples;Min_cycle;Max_cycle;Signal;HPM_P1;HPM_P2
2023/05/05 00:01:12;;;;;;;11.60;3.60;;;;;;;11.91;68.88;101345.39;5020074;56;1140944;-78
2023/05/05 00:06:17;;;;;;;12.40;4.00;;;;;;;11.91;68.88;101345.39;4951710;57;1140987;-77
2023/05/05 00:11:24;;;;;;;11.70;3.60;;;;;;;11.71;69.25;101340.59;5038283;57;1140797;-76
2023/05/05 00:16:30;;;;;;;6.83;3.73;;;;;;;11.57;68.90;101341.06;5031140;56;1141102;-76
2023/05/05 00:21:36;;;;;;;8.90;3.90;;;;;;;11.53;68.82;101340.89;5062065;56;1138718;-78
2023/05/05 00:26:41;;;;;;;9.83;4.03;;;;;;;11.53;69.05;101352.81;5042610;56;1138734;-79
2023/05/05 00:31:47;;;;;;;10.00;4.63;;;;;;;11.53;68.75;101342.69;5038752;57;1138956;-78
2023/05/05 00:36:52;;;;;;;11.00;3.15;;;;;;;11.45;69.14;101345.87;5058119;57;1140939;-76
2023/05/05 00:41:58;;;;;;;8.00;3.42;;;;;;;11.40;68.91;101344.48;5038475;57;1140917;-79
2023/05/05 00:47:04;;;;;;;10.57;3.90;;;;;;;11.38;68.99;101339.28;5059177;56;1138895;-76
2023/05/05 00:52:10;;;;;;;15.98;3.58;;;;;;;11.34;69.02;101335.14;5031987;55;1141087;-76
2023/05/05 00:57:16;;;;;;;9.35;3.45;;;;;;;11.23;68.95;101335.88;5095855;56;1140914;-78
2023/05/05 01:02:22;;;;;;;10.47;3.70;;;;;;;11.16;69.03;101339.88;5075694;56;1138811;-76
2023/05/05 01:07:43;;;;;;;8.10;3.40;;;;;;;11.10;69.41;101340.30;5062183;56;1140883;-76
2023/05/05 01:13:14;;;;;;;12.80;3.13;;;;;;;11.09;69.69;101342.57;5042987;56;1138739;-77
2023/05/05 01:18:54;;;;;;;6.87;3.40;;;;;;;11.02;69.73;101343.91;5007594;56;1140905;-75
2023/05/05 01:24:40;;;;;;;10.80;3.90;;;;;;;10.95;70.10;101344.44;5042826;56;1138912;-74
2023/05/05 01:30:22;;;;;;;16.55;3.90;;;;;;;10.88;70.41;101341.34;4937349;57;1140848;-78
2023/05/05 01:35:35;;;;;;;13.62;4.22;;;;;;;10.71;70.46;101348.20;4970602;57;1140862;-77
2023/05/05 01:40:54;;;;;;;10.50;3.93;;;;;;;10.66;71.61;101354.28;5006202;57;1140984;-76
2023/05/05 01:46:00;;;;;;;8.65;3.98;;;;;;;10.66;71.60;101352.48;4964622;57;1141038;-76
2023/05/05 01:51:08;;;;;;;6.83;3.50;;;;;;;10.66;71.87;101354.28;5115938;56;1138938;-76
2023/05/05 01:56:14;;;;;;;12.50;3.80;;;;;;;10.59;72.16;101348.52;5012447;55;1138715;-78
2023/05/05 02:01:24;;;;;;;11.07;4.67;;;;;;;10.54;72.10;101343.52;5085435;55;1141001;-78
2023/05/05 02:06:32;;;;;;;5.50;2.87;;;;;;;10.48;72.41;101337.80;5037869;57;1140847;-76
2023/05/05 02:11:40;;;;;;;6.37;3.00;;;;;;;10.43;72.88;101335.91;5057381;57;1138790;-77
2023/05/05 02:16:46;;;;;;;6.63;2.83;;;;;;;10.27;73.47;101329.89;5039101;56;1138810;-77
2023/05/05 02:21:52;;;;;;;8.63;3.53;;;;;;;10.18;74.41;101325.58;5017773;56;1138754;-75
2023/05/05 02:27:00;;;;;;;8.23;3.15;;;;;;;10.20;75.42;101327.66;5069361;56;1138981;-76
2023/05/05 02:32:13;;;;;;;10.72;4.14;;;;;;;10.12;75.92;101323.28;5009563;57;1138698;-75
2023/05/05 02:37:23;;;;;;;8.33;3.53;;;;;;;10.03;76.64;101327.83;5012530;57;1140829;-74
2023/05/05 02:42:38;;;;;;;10.00;3.60;;;;;;;9.94;77.26;101327.06;5012699;56;1138984;-78
2023/05/05 02:47:45;;;;;;;10.70;3.73;;;;;;;9.99;78.34;101321.50;4954801;57;1138777;-77
2023/05/05 02:52:51;;;;;;;13.73;4.10;;;;;;;10.10;77.83;101329.13;4959579;57;1138823;-77
2023/05/05 02:58:05;;;;;;;9.20;2.80;;;;;;;10.11;78.72;101333.47;4955939;57;1140889;-75
2023/05/05 03:03:40;;;;;;;13.13;4.33;;;;;;;10.09;78.09;101331.39;5024738;56;1138842;-75
2023/05/05 03:09:02;;;;;;;16.92;3.26;;;;;;;10.10;79.72;101342.81;4951225;57;1140863;-78
2023/05/05 03:14:18;;;;;;;11.73;3.33;;;;;;;10.04;78.72;101335.28;5056444;56;1140803;-76
2023/05/05 03:19:25;;;;;;;12.93;3.90;;;;;;;10.02;78.73;101334.06;5125226;56;1141032;-77
2023/05/05 03:24:32;;;;;;;7.37;3.70;;;;;;;10.02;79.31;101339.81;5070417;56;1141111;-75
2023/05/05 03:29:39;;;;;;;11.13;3.13;;;;;;;10.06;79.19;101340.01;4999024;57;1138657;-78
2023/05/05 03:34:47;;;;;;;8.60;3.33;;;;;;;10.05;79.13;101342.27;5018724;57;1140748;-75
2023/05/05 03:39:53;;;;;;;9.37;3.53;;;;;;;9.99;79.50;101347.45;5002258;57;1138653;-77
2023/05/05 03:44:59;;;;;;;9.90;3.90;;;;;;;10.04;79.73;101352.47;4854445;57;1136783;-75
2023/05/05 03:50:06;;;;;;;10.75;4.03;;;;;;;10.03;79.84;101358.22;4931171;58;1138948;-77
2023/05/05 03:55:13;;;;;;;19.60;4.00;;;;;;;10.01;79.95;101360.11;5010550;57;1140818;-77
2023/05/05 04:00:19;;;;;;;8.17;3.17;;;;;;;9.96;80.29;101354.72;5012760;57;1140807;-78
2023/05/05 04:05:25;;;;;;;16.53;3.43;;;;;;;9.86;80.35;101353.97;5069013;57;1136644;-74
2023/05/05 04:10:32;;;;;;;7.10;3.40;;;;;;;9.81;81.36;101361.31;5035643;57;1138725;-75
2023/05/05 04:15:38;;;;;;;9.13;3.65;;;;;;;9.83;81.23;101364.72;5003805;57;1136755;-76
2023/05/05 04:20:44;;;;;;;20.43;3.47;;;;;;;9.84;81.50;101370.39;5016144;57;1136696;-77
2023/05/05 04:25:50;;;;;;;14.37;4.00;;;;;;;9.84;83.21;101373.03;5017169;57;1139012;-75
2023/05/05 04:30:56;;;;;;;5.97;2.60;;;;;;;9.82;82.42;101379.34;5035965;56;1138861;-76
2023/05/05 04:36:02;;;;;;;15.57;3.27;;;;;;;9.82;82.87;101377.55;5054069;56;1136928;-76
2023/05/05 04:41:08;;;;;;;4.93;2.60;;;;;;;9.79;83.02;101376.88;4950393;56;1139029;-76
2023/05/05 04:46:14;;;;;;;6.10;2.87;;;;;;;9.79;84.21;101380.84;5027522;56;1136947;-77
2023/05/05 04:51:20;;;;;;;9.47;2.70;;;;;;;9.77;84.07;101383.61;5053351;56;1136974;-75
2023/05/05 04:56:26;;;;;;;4.30;3.30;;;;;;;9.81;85.02;101380.28;4947107;57;1136970;-75
2023/05/05 05:01:32;;;;;;;8.70;3.83;;;;;;;9.80;84.85;101388.68;5032081;55;1137008;-74
2023/05/05 05:06:37;;;;;;;6.45;3.35;;;;;;;9.84;85.51;101390.67;5031341;55;1136971;-76
2023/05/05 05:11:43;;;;;;;6.23;2.90;;;;;;;9.91;85.83;101382.77;5051878;56;1136742;-79
2023/05/05 05:16:51;;;;;;;19.80;3.77;;;;;;;9.87;86.16;101387.38;5025738;55;1137128;-76
2023/05/05 05:21:57;;;;;;;8.20;2.90;;;;;;;9.92;86.43;101388.43;4960890;57;1138854;-78
2023/05/05 05:27:06;;;;;;;18.30;4.08;;;;;;;9.97;86.95;101390.30;4975493;56;1136892;-75
2023/05/05 05:32:11;;;;;;;7.80;3.93;;;;;;;10.04;86.64;101391.64;4914449;57;1138778;-75
2023/05/05 05:37:17;;;;;;;9.30;3.62;;;;;;;10.15;86.94;101398.89;4919090;57;1138923;-74
2023/05/05 05:42:23;;;;;;;10.77;3.63;;;;;;;10.20;86.94;101390.25;4937723;57;1138756;-76
2023/05/05 05:47:29;;;;;;;17.23;3.30;;;;;;;10.20;87.89;101389.78;4964931;57;1140868;-77
2023/05/05 05:52:35;;;;;;;11.13;2.60;;;;;;;10.27;87.70;101398.16;4998929;57;1140826;-76
2023/05/05 05:57:41;;;;;;;13.57;2.97;;;;;;;10.39;87.03;101397.89;5018588;57;1140902;-75
2023/05/05 06:02:50;;;;;;;19.27;4.87;;;;;;;10.40;87.66;101401.73;4959073;57;1140820;-79
2023/05/05 06:07:57;;;;;;;19.90;4.00;;;;;;;10.46;87.45;101409.77;4977519;57;1140799;-77
2023/05/05 06:13:04;;;;;;;5.55;2.72;;;;;;;10.55;87.72;101416.64;5033187;57;1140733;-76
2023/05/05 06:18:10;;;;;;;12.73;3.67;;;;;;;10.70;87.65;101416.13;4999570;56;1138857;-78
2023/05/05 06:23:16;;;;;;;11.10;3.37;;;;;;;10.82;87.29;101423.31;4929829;57;1140707;-76
2023/05/05 06:28:23;;;;;;;9.10;3.37;;;;;;;10.93;87.47;101425.27;4940846;57;1141385;-78
2023/05/05 06:33:29;;;;;;;16.63;3.30;;;;;;;10.99;87.04;101429.32;4960640;57;1138710;-79
2023/05/05 06:38:34;;;;;;;7.63;3.67;;;;;;;11.08;87.20;101434.00;4960453;57;1140908;-72
2023/05/05 06:43:41;;;;;;;12.00;3.60;;;;;;;11.09;86.33;101441.00;4989656;57;1138717;-74
2023/05/05 06:48:49;;;;;;;5.90;3.37;;;;;;;11.23;87.62;101439.63;5040828;56;1140787;-77
2023/05/05 06:53:54;;;;;;;29.03;5.10;;;;;;;11.35;86.61;101448.08;5041572;56;1138714;-74
2023/05/05 06:59:00;;;;;;;6.47;3.57;;;;;;;11.36;86.06;101452.42;5061123;56;1140835;-79
2023/05/05 07:04:06;;;;;;;13.43;4.40;;;;;;;11.39;85.40;101442.96;5022916;56;1138880;-76
2023/05/05 07:09:11;;;;;;;11.80;3.65;;;;;;;11.44;86.11;101447.96;5042749;55;1140928;-75
2023/05/05 07:14:17;;;;;;;10.68;4.17;;;;;;;11.54;86.09;101449.03;5023581;56;1140942;-76
2023/05/05 07:19:22;;;;;;;13.45;4.22;;;;;;;11.52;85.41;101447.81;5022004;56;1141236;-74
2023/05/05 07:24:28;;;;;;;10.57;3.90;;;;;;;11.66;86.49;101438.94;5040866;56;1141027;-78
2023/05/05 07:29:34;;;;;;;16.00;4.50;;;;;;;11.81;84.58;101440.58;5042636;56;1141118;-76
2023/05/05 07:34:39;;;;;;;19.17;4.60;;;;;;;11.83;84.65;101445.30;5035345;56;1140848;-73
2023/05/05 07:39:51;;;;;;;10.27;4.00;;;;;;;11.97;85.74;101443.03;5013265;56;1140976;-79
2023/05/05 07:44:52;;;;;;;6.40;4.00;;;;;;;12.23;85.09;101443.39;5011969;56;1140820;-78
2023/05/05 07:49:58;;;;;;;5.60;3.67;;;;;;;12.43;82.35;101431.87;5030239;56;1138671;-77
2023/05/05 07:55:04;;;;;;;17.03;4.60;;;;;;;12.50;81.84;101432.66;5010197;56;1138908;-78
2023/05/05 08:00:12;;;;;;;9.77;3.90;;;;;;;12.56;80.92;101428.70;5011123;56;1140870;-80
2023/05/05 08:05:17;;;;;;;8.58;3.55;;;;;;;12.61;79.53;101434.55;5030795;57;1138746;-77
2023/05/05 08:10:23;;;;;;;14.55;5.22;;;;;;;12.75;79.44;101425.59;5011894;56;1138815;-80
2023/05/05 08:15:29;;;;;;;14.63;4.37;;;;;;;12.72;77.55;101422.67;5013021;56;1141136;-74
2023/05/05 08:20:34;;;;;;;9.80;4.25;;;;;;;12.78;78.49;101428.88;5013376;56;1141053;-78
2023/05/05 08:25:40;;;;;;;6.70;3.73;;;;;;;12.91;79.21;101440.30;5033005;57;1138917;-78
2023/05/05 08:30:45;;;;;;;4.80;3.27;;;;;;;13.00;77.32;101438.77;5013489;57;1138843;-76
2023/05/05 08:35:51;;;;;;;11.30;3.80;;;;;;;13.05;77.26;101447.25;5011453;57;1138735;-78
2023/05/05 08:40:57;;;;;;;22.77;3.57;;;;;;;13.14;74.87;101442.58;5031363;56;1140920;-74
2023/05/05 08:46:03;;;;;;;5.40;2.80;;;;;;;13.14;72.43;101449.73;5011489;56;1140774;-79
2023/05/05 08:51:18;;;;;;;24.77;4.13;;;;;;;13.11;71.97;101438.85;5012140;56;1138838;-79
2023/05/05 08:56:33;;;;;;;11.65;2.52;;;;;;;13.12;71.95;101443.20;5032702;57;1140803;-75
2023/05/05 09:01:39;;;;;;;12.50;3.30;;;;;;;13.29;73.91;101445.47;5095418;56;1140956;-77
2023/05/05 09:06:44;;;;;;;14.60;3.42;;;;;;;13.50;72.86;101452.81;5096613;56;1140923;-78
2023/05/05 09:11:53;;;;;;;17.07;3.73;;;;;;;13.76;72.38;101442.86;5116646;56;1140937;-78
2023/05/05 09:16:58;;;;;;;6.80;2.70;;;;;;;14.04;73.23;101441.13;5032843;56;1140780;-81
2023/05/05 09:22:04;;;;;;;8.20;3.77;;;;;;;14.17;69.10;101449.00;5013540;57;1138881;-76
2023/05/05 09:27:22;;;;;;;17.10;4.20;;;;;;;14.19;67.67;101443.08;5033469;56;1139050;-79
2023/05/05 09:32:28;;;;;;;12.60;3.77;;;;;;;14.34;68.71;101448.53;5013226;56;1140772;-76
2023/05/05 09:37:33;;;;;;;13.83;3.90;;;;;;;14.53;68.17;101446.61;5033157;56;1140754;-77
2023/05/05 09:42:40;;;;;;;8.35;3.35;;;;;;;14.68;67.21;101446.72;5042306;56;1140899;-78
2023/05/05 09:47:48;;;;;;;14.20;4.20;;;;;;;14.99;67.49;101451.75;5062648;56;1138703;-79
2023/05/05 09:53:02;;;;;;;7.47;3.37;;;;;;;15.22;67.22;101458.72;5042696;56;1140728;-76
2023/05/05 09:58:23;;;;;;;11.70;3.83;;;;;;;15.33;62.11;101456.02;5021575;56;1138707;-79
2023/05/05 10:03:29;;;;;;;7.37;2.73;;;;;;;15.43;64.48;101458.75;5059652;55;1140912;-79
2023/05/05 10:08:35;;;;;;;6.73;3.43;;;;;;;15.62;62.51;101465.62;5042893;55;1138705;-76
2023/05/05 10:13:41;;;;;;;11.85;3.25;;;;;;;15.77;65.87;101475.00;4998941;55;1139084;-80
2023/05/05 10:18:48;;;;;;;14.53;3.73;;;;;;;15.94;62.14;101482.91;4998895;57;1140923;-75
2023/05/05 10:24:11;;;;;;;10.77;4.00;;;;;;;16.08;64.30;101469.73;5004225;57;1140807;-80
2023/05/05 10:29:50;;;;;;;12.53;3.63;;;;;;;16.23;63.28;101472.41;4988977;56;1140840;-79
2023/05/05 10:35:04;;;;;;;10.53;4.20;;;;;;;16.31;63.04;101471.28;5035568;55;1141245;-80
2023/05/05 10:40:11;;;;;;;4.90;3.20;;;;;;;16.35;61.85;101466.00;4973822;55;1140869;-78
2023/05/05 10:45:17;;;;;;;13.15;3.95;;;;;;;16.33;62.82;101464.47;4849790;57;1138740;-79
2023/05/05 10:50:35;;;;;;;13.90;3.33;;;;;;;16.32;63.29;101466.30;4844176;57;1141093;-76
2023/05/05 10:56:07;;;;;;;7.90;4.12;;;;;;;16.47;62.27;101452.95;4840875;56;1140884;-79
2023/05/05 11:01:16;;;;;;;12.87;4.83;;;;;;;16.51;61.10;101446.33;4815864;57;1138989;-76
2023/05/05 11:06:22;;;;;;;13.48;5.08;;;;;;;16.74;64.15;101448.84;4870064;56;1141050;-77
2023/05/05 11:11:49;;;;;;;11.67;5.00;;;;;;;16.90;64.58;101435.81;4872561;56;1140889;-78
2023/05/05 11:16:55;;;;;;;12.17;4.63;;;;;;;17.09;64.07;101440.35;4885920;55;1140969;-80
2023/05/05 11:22:01;;;;;;;24.10;5.10;;;;;;;17.12;64.12;101439.56;4859721;57;1140964;-78
2023/05/05 11:27:08;;;;;;;11.77;4.20;;;;;;;17.06;62.21;101432.60;4922559;56;1140906;-75
2023/05/05 11:32:16;;;;;;;10.60;3.70;;;;;;;17.01;63.01;101427.66;4901906;55;1140878;-81
2023/05/05 11:37:23;;;;;;;50.43;6.30;;;;;;;17.11;62.31;101427.17;4904089;56;1140949;-75
2023/05/05 11:42:29;;;;;;;6.42;3.10;;;;;;;17.10;61.51;101419.33;4924711;57;1140852;-77
2023/05/05 11:47:35;;;;;;;20.97;3.97;;;;;;;17.00;58.69;101411.27;4928569;57;1138670;-76
2023/05/05 11:52:41;;;;;;;9.43;3.50;;;;;;;16.78;59.32;101424.41;4928566;57;1140958;-75
2023/05/05 11:57:46;;;;;;;10.07;3.27;;;;;;;16.81;60.14;101437.46;5026173;57;1138666;-83
2023/05/05 12:02:56;;;;;;;8.80;3.03;;;;;;;16.76;59.89;101422.36;4980018;57;1141178;-82
2023/05/05 12:08:02;;;;;;;7.67;3.67;;;;;;;16.94;60.84;101433.72;4980368;57;1138660;-77
2023/05/05 12:13:19;;;;;;;10.40;3.80;;;;;;;17.06;58.24;101438.80;4999589;57;1138827;-79
2023/05/05 12:18:25;;;;;;;12.90;3.33;;;;;;;17.06;59.75;101433.94;5000176;57;1140959;-82
2023/05/05 12:23:39;;;;;;;9.43;3.30;;;;;;;17.19;61.28;101439.38;5013389;57;1140911;-80
2023/05/05 12:28:47;;;;;;;10.82;3.70;;;;;;;17.26;59.15;101432.14;5013525;57;1138885;-77
2023/05/05 12:33:53;;;;;;;5.13;2.80;;;;;;;17.28;57.58;101432.33;5032982;57;1140734;-79
2023/05/05 12:38:59;;;;;;;26.27;5.83;;;;;;;17.20;57.41;101427.70;5013953;57;1138809;-80
2023/05/05 12:44:05;;;;;;;29.87;4.63;;;;;;;17.12;56.32;101425.34;4999728;55;1140803;-80
2023/05/05 12:49:12;;;;;;;15.80;4.90;;;;;;;17.09;57.15;101426.98;4965714;56;1140959;-80
2023/05/05 12:54:17;;;;;;;12.13;3.50;;;;;;;17.08;56.57;101422.63;4951366;57;1140828;-74
2023/05/05 12:59:28;;;;;;;9.78;3.60;;;;;;;16.90;55.70;101423.78;4951347;57;1140885;-80
2023/05/05 13:04:34;;;;;;;14.37;4.03;;;;;;;16.77;56.90;101428.05;4951801;58;1138994;-78
2023/05/05 13:09:40;;;;;;;9.00;3.97;;;;;;;16.74;59.04;101421.64;4970872;58;1140804;-84
2023/05/05 13:14:46;;;;;;;6.87;3.30;;;;;;;16.78;57.52;101409.70;4951315;58;1138851;-79
2023/05/05 13:19:52;;;;;;;10.60;3.47;;;;;;;16.70;57.83;101404.19;4951313;57;1138659;-78
2023/05/05 13:24:57;;;;;;;18.07;3.77;;;;;;;16.62;58.08;101404.01;4885709;58;1140825;-76
2023/05/05 13:30:03;;;;;;;18.00;3.93;;;;;;;16.60;58.19;101395.78;4868191;58;1140844;-79
2023/05/05 13:35:09;;;;;;;21.10;3.17;;;;;;;16.69;59.47;101390.97;4869013;58;1140903;-75
2023/05/05 13:40:15;;;;;;;21.60;4.63;;;;;;;16.90;58.97;101391.72;4887355;58;1141141;-74
2023/05/05 13:45:21;;;;;;;7.40;3.08;;;;;;;16.84;57.43;101375.73;4905029;57;1140941;-76
2023/05/05 13:50:26;;;;;;;15.48;4.10;;;;;;;16.77;58.55;101371.11;4928175;58;1138797;-79
2023/05/05 13:55:32;;;;;;;14.43;4.17;;;;;;;16.88;59.78;101369.64;4999617;56;1140887;-77
2023/05/05 14:00:37;;;;;;;10.13;3.67;;;;;;;17.07;58.47;101368.81;5014769;57;1140731;-79
2023/05/05 14:05:44;;;;;;;27.67;4.07;;;;;;;17.04;58.38;101359.24;5013171;57;1140839;-77
2023/05/05 14:10:50;;;;;;;11.83;4.23;;;;;;;17.05;58.24;101357.41;5013548;57;1141003;-75
2023/05/05 14:15:57;;;;;;;18.42;11.88;;;;;;;16.75;56.60;101353.88;5032876;57;1140801;-75
2023/05/05 14:21:02;;;;;;;11.40;5.27;;;;;;;16.66;57.45;101350.68;5012943;57;1142828;-79
2023/05/05 14:26:08;;;;;;;56.17;33.50;;;;;;;16.54;58.59;101353.94;5013161;57;1140684;-76
2023/05/05 14:31:13;;;;;;;36.70;21.03;;;;;;;16.42;57.94;101344.84;5033267;56;1143052;-80
2023/05/05 14:36:19;;;;;;;7.47;3.67;;;;;;;16.26;57.19;101348.03;5008002;56;1142756;-77
2023/05/05 14:41:27;;;;;;;9.60;3.90;;;;;;;16.17;56.43;101344.36;5013571;56;1138826;-75
2023/05/05 14:46:33;;;;;;;11.77;4.13;;;;;;;16.12;58.39;101341.73;5014911;56;1138890;-75
2023/05/05 14:51:38;;;;;;;14.20;4.53;;;;;;;16.16;58.65;101327.98;5002082;57;1140750;-75
2023/05/05 14:56:44;;;;;;;9.77;4.27;;;;;;;16.07;57.32;101331.45;5032538;57;1140808;-75
2023/05/05 15:01:50;;;;;;;10.55;3.80;;;;;;;15.95;58.04;101329.02;5032848;56;1138962;-76
2023/05/05 15:06:55;;;;;;;26.40;4.23;;;;;;;15.93;58.83;101314.47;5037204;56;1140926;-79
2023/05/05 15:12:01;;;;;;;11.87;3.40;;;;;;;16.02;58.30;101323.52;5026548;56;1141064;-76
2023/05/05 15:17:06;;;;;;;21.13;4.67;;;;;;;16.01;58.55;101315.15;5023604;56;1140843;-73
2023/05/05 15:22:12;;;;;;;7.00;3.03;;;;;;;15.88;58.27;101319.88;4988554;56;1140881;-77
2023/05/05 15:27:17;;;;;;;9.03;3.40;;;;;;;15.79;57.65;101317.50;5014157;56;1138815;-75
2023/05/05 15:32:23;;;;;;;8.03;3.52;;;;;;;15.71;57.58;101321.33;5033719;56;1138927;-76
2023/05/05 15:37:29;;;;;;;14.30;4.40;;;;;;;15.70;58.50;101328.48;5053291;56;1138762;-76
2023/05/05 15:42:34;;;;;;;6.30;3.50;;;;;;;15.72;57.57;101319.87;5033175;57;1140845;-75
2023/05/05 15:47:40;;;;;;;8.18;3.98;;;;;;;15.78;56.17;101323.31;5028272;56;1138980;-77
2023/05/05 15:52:46;;;;;;;8.47;4.07;;;;;;;15.75;55.34;101316.06;5033227;56;1138777;-76
2023/05/05 15:57:52;;;;;;;14.93;3.47;;;;;;;15.64;56.76;101322.33;4999092;56;1138680;-75
2023/05/05 16:02:57;;;;;;;12.13;4.83;;;;;;;15.55;57.16;101319.59;4898086;57;1141066;-72
2023/05/05 16:08:08;;;;;;;12.37;3.90;;;;;;;15.43;57.16;101324.13;4891547;58;1140943;-76
2023/05/05 16:13:10;;;;;;;18.87;4.30;;;;;;;15.35;55.88;101319.95;4928220;57;1141023;-77
2023/05/05 16:18:16;;;;;;;15.27;5.43;;;;;;;15.23;56.28;101322.33;4902923;57;1140996;-79
2023/05/05 16:23:21;;;;;;;27.37;4.03;;;;;;;15.07;56.66;101329.43;4947528;57;1140873;-78
2023/05/05 16:28:27;;;;;;;29.65;4.05;;;;;;;15.02;57.48;101313.82;4909493;57;1141040;-78
2023/05/05 16:33:34;;;;;;;13.07;3.17;;;;;;;15.01;58.33;101315.27;4946151;57;1140906;-79
2023/05/05 16:38:42;;;;;;;14.50;3.37;;;;;;;14.88;57.38;101310.12;4951613;57;1140891;-76
2023/05/05 16:43:48;;;;;;;18.50;6.80;;;;;;;14.80;58.21;101302.43;4957626;57;1141090;-74
2023/05/05 16:48:54;;;;;;;8.63;4.10;;;;;;;14.73;58.86;101297.59;4898321;57;1140963;-77
2023/05/05 16:53:59;;;;;;;12.10;4.10;;;;;;;14.67;60.22;101298.09;4960817;57;1138859;-76
2023/05/05 16:59:05;;;;;;;18.87;8.10;;;;;;;14.67;60.22;101298.09;4968596;56;1140877;-78
2023/05/05 17:04:10;;;;;;;18.23;13.67;;;;;;;14.63;60.53;101291.84;4960950;56;1140695;-80
2023/05/05 17:09:16;;;;;;;10.43;5.87;;;;;;;14.56;61.25;101291.97;5008052;56;1142905;-78
2023/05/05 17:14:23;;;;;;;12.80;5.30;;;;;;;14.57;61.60;101297.66;4936441;56;1141029;-78
2023/05/05 17:19:28;;;;;;;9.83;4.15;;;;;;;14.52;62.21;101295.84;4984953;56;1140982;-79
2023/05/05 17:24:34;;;;;;;7.90;5.72;;;;;;;14.52;62.87;101294.02;4889929;56;1138788;-76
2023/05/05 17:29:40;;;;;;;14.93;7.97;;;;;;;14.48;63.45;101299.75;4912891;57;1138807;-80
2023/05/05 17:34:45;;;;;;;10.03;6.10;;;;;;;14.47;64.02;101304.22;4906140;58;1140816;-78
2023/05/05 17:39:51;;;;;;;16.80;5.20;;;;;;;14.45;64.37;101311.48;4900487;57;1140887;-79
2023/05/05 17:44:56;;;;;;;9.77;4.17;;;;;;;14.36;64.60;101309.03;5007642;57;1140834;-77
2023/05/05 17:50:02;;;;;;;11.13;5.67;;;;;;;14.28;65.08;101305.31;5027830;56;1138733;-78
2023/05/05 17:55:08;;;;;;;8.43;5.00;;;;;;;14.17;65.13;101306.67;5007494;57;1141063;-76
2023/05/05 18:00:15;;;;;;;7.73;4.57;;;;;;;14.09;65.16;101317.91;5007792;57;1138934;-77
2023/05/05 18:05:20;;;;;;;11.63;4.73;;;;;;;14.04;65.66;101314.78;5020748;57;1138924;-77
2023/05/05 18:10:26;;;;;;;10.90;5.12;;;;;;;13.90;66.31;101319.02;4986595;56;1140815;-75
2023/05/05 18:15:32;;;;;;;9.18;6.55;;;;;;;13.79;66.16;101316.34;5003448;57;1141121;-77
2023/05/05 18:20:37;;;;;;;10.40;7.13;;;;;;;13.70;67.04;101316.11;5007957;57;1138944;-76
2023/05/05 18:25:43;;;;;;;12.80;5.37;;;;;;;13.62;67.03;101334.45;5026588;56;1140883;-76
2023/05/05 18:30:49;;;;;;;20.83;11.73;;;;;;;13.50;67.32;101328.75;5003019;57;1141044;-75
2023/05/05 18:35:55;;;;;;;30.60;18.60;;;;;;;13.38;67.81;101332.36;4898772;56;1142996;-75
2023/05/05 18:41:01;;;;;;;26.53;9.07;;;;;;;13.31;68.35;101338.61;4883609;57;1142963;-75
2023/05/05 18:46:06;;;;;;;18.67;11.90;;;;;;;13.25;68.21;101331.12;4948043;57;1140832;-74
2023/05/05 18:51:12;;;;;;;19.47;8.60;;;;;;;13.17;68.77;101332.16;4964955;57;1143039;-76
2023/05/05 18:56:18;;;;;;;14.47;7.80;;;;;;;13.11;68.75;101327.78;4834362;57;1141060;-75
2023/05/05 19:01:24;;;;;;;11.57;5.42;;;;;;;12.98;69.02;101327.86;4931760;55;1140975;-73
2023/05/05 19:06:30;;;;;;;9.20;4.37;;;;;;;12.86;69.42;101324.77;4896039;56;1140811;-75
2023/05/05 19:11:35;;;;;;;17.80;7.40;;;;;;;12.78;69.77;101330.66;4854274;58;1138765;-73
2023/05/05 19:16:41;;;;;;;8.90;4.90;;;;;;;12.68;70.71;101322.98;4950854;57;1140836;-78
2023/05/05 19:21:46;;;;;;;7.67;4.20;;;;;;;12.55;70.96;101333.66;4971455;56;1138791;-76
2023/05/05 19:26:52;;;;;;;8.77;4.23;;;;;;;12.46;70.97;101333.01;5012819;56;1138968;-76
2023/05/05 19:31:58;;;;;;;18.83;5.17;;;;;;;12.41;71.68;101328.50;4992283;55;1138855;-78
2023/05/05 19:37:03;;;;;;;6.60;3.37;;;;;;;12.01;70.18;101328.34;4967181;56;1140878;-76
2023/05/05 19:42:09;;;;;;;14.00;5.83;;;;;;;12.01;70.18;101328.34;4980919;57;1139003;-78
2023/05/05 19:47:14;;;;;;;11.67;3.47;;;;;;;11.91;69.26;101337.44;5018576;57;1140846;-78
2023/05/05 19:52:23;;;;;;;8.97;3.70;;;;;;;11.71;68.83;101339.26;4981111;57;1140837;-76
2023/05/05 19:57:28;;;;;;;6.58;3.52;;;;;;;11.53;68.81;101343.54;4966192;56;1138835;-78
2023/05/05 20:02:34;;;;;;;12.50;4.60;;;;;;;11.42;68.55;101346.55;4902372;57;1139018;-79
2023/05/05 20:07:40;;;;;;;11.93;3.47;;;;;;;11.27;68.73;101346.64;4965767;56;1140838;-76
2023/05/05 20:12:49;;;;;;;5.43;3.47;;;;;;;11.22;68.77;101347.42;5067319;55;1140959;-77
2023/05/05 20:17:54;;;;;;;8.00;3.23;;;;;;;11.14;68.85;101354.19;5075294;55;1138637;-75
2023/05/05 20:23:00;;;;;;;5.93;4.03;;;;;;;11.11;69.11;101361.86;5012910;56;1138815;-76
2023/05/05 20:28:06;;;;;;;16.50;4.80;;;;;;;11.00;69.64;101359.05;4981120;56;1138825;-79
2023/05/05 20:33:11;;;;;;;7.63;3.40;;;;;;;10.96;69.22;101354.93;5015267;55;1140745;-75
2023/05/05 20:38:17;;;;;;;9.50;3.20;;;;;;;10.80;68.92;101344.50;4993489;56;1139064;-76
2023/05/05 20:43:23;;;;;;;9.87;3.93;;;;;;;10.57;69.16;101353.06;5015883;55;1139213;-75
2023/05/05 20:48:29;;;;;;;10.33;3.73;;;;;;;10.28;69.15;101348.78;5039960;56;1138852;-78
2023/05/05 20:53:35;;;;;;;11.00;3.72;;;;;;;10.28;69.15;101348.78;5041967;56;1141452;-78
2023/05/05 20:58:41;;;;;;;6.23;3.67;;;;;;;10.09;69.28;101347.25;5052511;56;1140961;-75
2023/05/05 21:03:47;;;;;;;5.90;3.80;;;;;;;10.06;69.45;101347.47;5032977;56;1138933;-76
2023/05/05 21:08:53;;;;;;;15.53;3.63;;;;;;;10.04;69.38;101349.35;5025256;56;1138862;-77
2023/05/05 21:13:59;;;;;;;5.47;3.23;;;;;;;9.94;69.33;101340.74;5042817;55;1141172;-78
2023/05/05 21:19:04;;;;;;;9.43;3.87;;;;;;;9.86;69.38;101335.48;5023677;55;1136762;-76
2023/05/05 21:24:11;;;;;;;8.93;3.70;;;;;;;9.79;69.26;101339.42;5078014;55;1137028;-75
2023/05/05 21:29:17;;;;;;;8.07;3.33;;;;;;;9.70;69.46;101341.31;5098280;54;1136990;-78
2023/05/05 21:34:24;;;;;;;8.83;2.83;;;;;;;9.62;69.59;101331.70;5058813;55;1137049;-78
2023/05/05 21:39:31;;;;;;;12.07;4.43;;;;;;;9.51;69.97;101341.58;5049900;55;1136896;-77
2023/05/05 21:44:37;;;;;;;9.87;4.47;;;;;;;9.48;70.04;101336.47;5048841;55;1139161;-76
2023/05/05 21:49:43;;;;;;;11.60;4.50;;;;;;;9.33;70.19;101329.47;5043940;55;1137097;-76
2023/05/05 21:54:48;;;;;;;17.20;4.23;;;;;;;9.31;70.67;101333.16;5034496;57;1137197;-76
2023/05/05 21:59:54;;;;;;;7.33;3.80;;;;;;;9.25;70.99;101326.91;5015159;56;1137068;-79
2023/05/05 22:05:00;;;;;;;9.83;4.77;;;;;;;9.10;71.32;101312.36;5028630;56;1134733;-76
2023/05/05 22:10:06;;;;;;;7.20;4.13;;;;;;;9.04;71.36;101298.67;5007452;56;1134710;-75
2023/05/05 22:15:12;;;;;;;6.87;3.93;;;;;;;8.94;71.94;101297.52;4868732;58;1134877;-76
2023/05/05 22:20:17;;;;;;;6.97;3.53;;;;;;;8.80;72.50;101288.63;5051560;56;1134668;-78
2023/05/05 22:25:23;;;;;;;6.83;3.63;;;;;;;8.82;72.41;101305.69;5025437;56;1134658;-76
2023/05/05 22:30:29;;;;;;;9.25;3.55;;;;;;;8.80;72.63;101304.92;5048117;56;1134556;-79
2023/05/05 22:35:34;;;;;;;13.73;4.43;;;;;;;8.77;73.17;101293.22;5006801;56;1134764;-78
2023/05/05 22:40:40;;;;;;;7.90;4.30;;;;;;;8.69;73.71;101286.23;4915489;57;1136653;-77
2023/05/05 22:45:46;;;;;;;13.33;4.53;;;;;;;8.60;73.84;101273.55;4942309;56;1134473;-74
2023/05/05 22:50:51;;;;;;;5.67;3.60;;;;;;;8.55;74.36;101287.49;4979381;56;1136958;-78
2023/05/05 22:55:57;;;;;;;6.23;3.60;;;;;;;8.48;74.69;101271.63;5084143;56;1134761;-79
2023/05/05 23:01:03;;;;;;;13.15;4.10;;;;;;;8.45;75.04;101266.05;5043215;55;1134685;-79
2023/05/05 23:06:10;;;;;;;12.40;4.83;;;;;;;8.41;75.18;101257.93;4969369;57;1136858;-79
2023/05/05 23:11:15;;;;;;;9.70;4.78;;;;;;;8.35;76.21;101257.83;4933556;58;1136711;-77